Time;durP1;ratioP1;P1;durP2;ratioP2;P2;SDS_P1;SDS_P2;PMS_P1;PMS_P2;Temp;Humidity;BMP_temperature;BMP_pressure;BME280_temperature;BME280_humidity;BME280_pressure;Samples;Min_cycle;Max_cycle;Signal;HPM_P1;HPM_P2
2021/07/16 00:01:23;;;;;;;18.10;4.97;;;17.90;99.90;;;;;;5023193;28;20027;-70
2021/07/16 00:03:49;;;;;;;20.80;4.57;;;17.90;99.90;;;;;;5006650;28;20129;-70
2021/07/16 00:06:17;;;;;;;23.55;4.13;;;18.00;99.90;;;;;;5006292;28;20027;-72
2021/07/16 00:08:42;;;;;;;9.15;4.28;;;18.00;99.90;;;;;;5006433;28;20031;-71
2021/07/16 00:11:08;;;;;;;8.85;3.65;;;18.00;99.90;;;;;;5006229;28;20022;-70
2021/07/16 00:13:34;;;;;;;11.85;4.47;;;17.90;99.90;;;;;;5006320;28;20046;-71
2021/07/16 00:16:00;;;;;;;7.20;3.88;;;18.00;99.90;;;;;;5005643;28;20044;-70
2021/07/16 00:18:25;;;;;;;18.92;4.47;;;17.90;99.90;;;;;;5005820;28;20053;-71
2021/07/16 00:20:51;;;;;;;14.23;4.88;;;17.90;99.90;;;;;;5005702;28;20034;-71
2021/07/16 00:23:17;;;;;;;19.55;3.90;;;17.90;99.90;;;;;;5006190;28;20165;-72
2021/07/16 00:25:42;;;;;;;15.68;3.78;;;17.90;99.90;;;;;;5006013;28;20468;-69
2021/07/16 00:28:08;;;;;;;13.63;4.13;;;17.90;99.90;;;;;;5005910;28;20082;-70
2021/07/16 00:30:36;;;;;;;8.68;3.50;;;17.90;99.90;;;;;;5006133;28;20051;-71
2021/07/16 00:33:06;;;;;;;15.05;4.47;;;17.80;99.90;;;;;;5006041;28;20505;-71
2021/07/16 00:35:33;;;;;;;6.40;3.30;;;17.80;99.90;;;;;;5006273;28;20134;-69
2021/07/16 00:38:01;;;;;;;8.20;3.92;;;17.80;99.90;;;;;;5006196;28;20038;-70
2021/07/16 00:40:27;;;;;;;6.97;3.15;;;17.80;99.90;;;;;;5005954;28;20038;-70
2021/07/16 00:42:52;;;;;;;13.52;4.32;;;17.80;99.90;;;;;;5005861;28;20040;-69
2021/07/16 00:45:18;;;;;;;8.18;3.42;;;17.80;99.90;;;;;;5005538;28;20033;-69
2021/07/16 00:47:45;;;;;;;10.93;4.15;;;17.70;99.90;;;;;;5004413;28;20087;-68
2021/07/16 00:50:15;;;;;;;7.95;3.40;;;17.70;99.90;;;;;;5005770;28;20065;-69
2021/07/16 00:52:42;;;;;;;22.77;4.60;;;17.70;99.90;;;;;;5005631;28;20041;-68
2021/07/16 00:55:08;;;;;;;17.90;4.60;;;17.70;99.90;;;;;;5005428;28;20062;-68
2021/07/16 00:57:35;;;;;;;12.00;4.03;;;17.70;99.90;;;;;;5005564;28;20041;-69
2021/07/16 01:00:03;;;;;;;7.65;3.95;;;17.70;99.90;;;;;;5005633;28;20022;-69
2021/07/16 01:02:30;;;;;;;24.17;4.72;;;17.70;99.90;;;;;;5005431;28;20042;-69
2021/07/16 01:04:56;;;;;;;10.20;3.70;;;17.70;99.90;;;;;;5005192;28;20041;-71
2021/07/16 01:07:21;;;;;;;12.30;3.78;;;17.70;99.90;;;;;;5005345;28;20034;-68
2021/07/16 01:09:51;;;;;;;7.00;2.78;;;17.70;99.90;;;;;;5004970;28;20022;-69
2021/07/16 01:12:18;;;;;;;27.33;4.55;;;17.70;99.90;;;;;;5005069;28;20046;-69
2021/07/16 01:14:45;;;;;;;9.55;3.65;;;17.60;99.90;;;;;;5005036;28;20038;-70
2021/07/16 01:17:11;;;;;;;20.63;4.68;;;17.60;99.90;;;;;;5005092;28;20077;-69
2021/07/16 01:19:57;;;;;;;8.80;3.47;;;17.70;99.90;;;;;;5005227;28;20030;-69
2021/07/16 01:22:29;;;;;;;13.32;4.07;;;17.60;99.90;;;;;;5004830;28;20081;-69
2021/07/16 01:24:59;;;;;;;12.75;4.63;;;17.60;99.90;;;;;;5005223;28;20034;-70
2021/07/16 01:27:26;;;;;;;12.43;4.40;;;17.60;99.90;;;;;;5004417;28;20030;-71
2021/07/16 01:29:53;;;;;;;9.02;4.57;;;17.60;99.90;;;;;;5004858;28;20053;-69
2021/07/16 01:32:19;;;;;;;16.48;4.15;;;17.60;99.90;;;;;;5003898;28;20030;-69
2021/07/16 01:34:46;;;;;;;9.07;3.72;;;17.60;99.90;;;;;;5004962;28;20046;-70
2021/07/16 01:37:13;;;;;;;10.73;3.67;;;17.60;99.90;;;;;;5004869;28;20068;-68
2021/07/16 01:39:39;;;;;;;12.57;3.53;;;17.60;99.90;;;;;;5004941;28;20080;-68
2021/07/16 01:42:09;;;;;;;12.48;4.25;;;17.60;99.90;;;;;;5004333;28;20030;-68
2021/07/16 01:44:37;;;;;;;13.63;4.22;;;17.60;99.90;;;;;;5004978;28;20018;-70
2021/07/16 01:47:03;;;;;;;9.13;4.40;;;17.60;99.90;;;;;;5004796;28;20037;-69
2021/07/16 01:49:29;;;;;;;23.70;4.97;;;17.50;99.90;;;;;;5004887;28;20030;-68
2021/07/16 01:51:55;;;;;;;11.02;4.10;;;17.50;99.90;;;;;;5004644;28;20026;-71
2021/07/16 01:54:21;;;;;;;16.58;5.40;;;17.50;99.90;;;;;;5004398;28;20050;-72
2021/07/16 01:56:46;;;;;;;17.63;4.15;;;17.50;99.90;;;;;;5009687;28;20060;-71
2021/07/16 01:59:12;;;;;;;15.95;4.75;;;17.50;99.90;;;;;;5022927;28;20080;-70
2021/07/16 02:01:38;;;;;;;17.13;4.40;;;17.50;99.90;;;;;;5010929;28;20112;-70
2021/07/16 02:04:05;;;;;;;8.88;3.60;;;17.50;99.90;;;;;;5017440;28;20029;-71
2021/07/16 02:06:32;;;;;;;29.70;4.03;;;17.50;99.90;;;;;;5004844;28;20035;-70
2021/07/16 02:08:58;;;;;;;6.25;2.92;;;17.40;99.90;;;;;;5004898;28;20022;-68
2021/07/16 02:11:24;;;;;;;12.40;4.47;;;17.40;99.90;;;;;;5008815;28;20060;-71
2021/07/16 02:13:51;;;;;;;13.63;4.13;;;17.40;99.90;;;;;;5023965;28;20057;-70
2021/07/16 02:16:17;;;;;;;7.63;4.07;;;17.40;99.90;;;;;;5024147;28;20492;-72
2021/07/16 02:18:53;;;;;;;8.70;3.22;;;17.40;99.90;;;;;;5024203;28;20030;-70
2021/07/16 02:21:20;;;;;;;13.38;4.75;;;17.30;99.90;;;;;;5024078;28;20046;-69
2021/07/16 02:23:48;;;;;;;15.05;3.67;;;17.30;99.90;;;;;;5024073;28;20026;-71
2021/07/16 02:26:13;;;;;;;17.38;4.28;;;17.30;99.90;;;;;;5024217;28;20029;-70
2021/07/16 02:28:39;;;;;;;20.98;5.13;;;17.30;99.90;;;;;;5024160;28;20026;-72
2021/07/16 02:31:07;;;;;;;7.20;3.17;;;17.30;99.90;;;;;;5023866;28;20048;-69
2021/07/16 02:33:35;;;;;;;22.45;4.43;;;17.30;99.90;;;;;;5022620;28;20473;-74
2021/07/16 02:36:02;;;;;;;13.05;3.10;;;17.30;99.90;;;;;;5024244;28;20038;-73
2021/07/16 02:38:28;;;;;;;16.88;4.13;;;17.20;99.90;;;;;;5026112;28;20026;-71
2021/07/16 02:40:54;;;;;;;8.45;3.55;;;17.20;99.90;;;;;;5016226;28;20031;-70
2021/07/16 02:43:21;;;;;;;11.75;3.22;;;17.30;99.90;;;;;;5008144;28;20037;-71
2021/07/16 02:45:47;;;;;;;17.98;4.68;;;17.30;99.90;;;;;;5008036;28;20027;-69
2021/07/16 02:48:13;;;;;;;14.93;3.92;;;17.30;99.90;;;;;;5007787;28;20118;-71
2021/07/16 02:50:43;;;;;;;14.50;3.55;;;17.30;99.90;;;;;;5007776;28;20050;-72
2021/07/16 02:53:10;;;;;;;7.80;3.72;;;17.30;99.90;;;;;;5007792;28;20026;-72
2021/07/16 02:55:37;;;;;;;10.10;3.15;;;17.30;99.90;;;;;;5007544;28;20500;-71
2021/07/16 02:58:04;;;;;;;17.70;3.85;;;17.40;99.90;;;;;;5007487;28;20036;-74
2021/07/16 03:00:32;;;;;;;18.25;5.35;;;17.40;99.90;;;;;;5007599;28;20089;-70
2021/07/16 03:02:59;;;;;;;13.30;3.90;;;17.40;99.90;;;;;;5007749;28;20453;-70
2021/07/16 03:05:30;;;;;;;18.08;3.67;;;17.40;99.90;;;;;;5007591;28;20026;-72
2021/07/16 03:07:57;;;;;;;15.90;3.88;;;17.40;99.90;;;;;;5007432;28;20037;-71
2021/07/16 03:10:35;;;;;;;15.85;3.83;;;17.40;99.90;;;;;;5006079;28;20022;-70
2021/07/16 03:13:03;;;;;;;11.75;3.45;;;17.40;99.90;;;;;;5007333;28;20105;-73
2021/07/16 03:15:29;;;;;;;10.23;3.92;;;17.40;99.90;;;;;;5007668;28;20045;-68
2021/07/16 03:17:56;;;;;;;18.30;3.88;;;17.40;99.90;;;;;;5007339;28;20062;-70
2021/07/16 03:20:25;;;;;;;10.63;3.42;;;17.40;99.90;;;;;;5007371;28;20019;-69
2021/07/16 03:22:51;;;;;;;14.48;3.53;;;17.40;99.90;;;;;;5007342;28;20022;-70
2021/07/16 03:25:18;;;;;;;18.95;3.53;;;17.50;99.90;;;;;;5007119;28;20030;-72
2021/07/16 03:27:45;;;;;;;14.32;4.05;;;17.40;99.90;;;;;;5007270;28;20491;-72
2021/07/16 03:30:16;;;;;;;19.23;4.05;;;17.40;99.90;;;;;;5007065;28;20385;-70
2021/07/16 03:32:43;;;;;;;12.77;4.03;;;17.40;99.90;;;;;;5007086;28;20122;-72
2021/07/16 03:35:10;;;;;;;13.05;3.33;;;17.40;99.90;;;;;;5007043;28;20061;-69
2021/07/16 03:37:37;;;;;;;7.68;3.72;;;17.30;99.90;;;;;;5007035;28;20030;-71
2021/07/16 03:40:05;;;;;;;12.93;2.90;;;17.30;99.90;;;;;;5006933;28;20082;-74
2021/07/16 03:42:31;;;;;;;8.13;3.42;;;17.30;99.90;;;;;;5007093;28;20050;-70
2021/07/16 03:44:57;;;;;;;7.22;3.17;;;17.40;99.90;;;;;;5006892;28;20480;-68
2021/07/16 03:47:22;;;;;;;13.50;3.78;;;17.40;99.90;;;;;;5006502;28;20074;-71
2021/07/16 03:49:48;;;;;;;10.30;2.92;;;17.40;99.90;;;;;;5005560;28;20029;-70
2021/07/16 03:52:14;;;;;;;17.80;4.00;;;17.40;99.90;;;;;;5007137;28;20030;-71
2021/07/16 03:54:40;;;;;;;11.65;3.40;;;17.40;99.90;;;;;;5006765;28;20485;-71
2021/07/16 03:57:07;;;;;;;20.48;4.57;;;17.40;99.90;;;;;;5006747;28;20027;-70
2021/07/16 03:59:33;;;;;;;13.88;3.70;;;17.40;99.90;;;;;;5006385;28;20428;-68
2021/07/16 04:02:00;;;;;;;9.40;3.38;;;17.40;99.90;;;;;;5006501;28;20061;-68
2021/07/16 04:04:27;;;;;;;14.98;4.57;;;17.40;99.90;;;;;;5006658;28;20463;-70
2021/07/16 04:06:54;;;;;;;8.43;3.33;;;17.40;99.90;;;;;;5005693;28;20030;-68
2021/07/16 04:09:26;;;;;;;7.82;3.33;;;17.40;99.90;;;;;;5006156;28;20082;-70
2021/07/16 04:12:12;;;;;;;8.05;3.08;;;17.40;99.90;;;;;;5006235;28;20023;-69
2021/07/16 04:14:41;;;;;;;8.68;3.35;;;17.40;99.90;;;;;;5006346;28;20042;-69
2021/07/16 04:17:12;;;;;;;10.50;3.88;;;17.40;99.90;;;;;;5006187;28;20030;-68
2021/07/16 04:19:39;;;;;;;20.75;4.80;;;17.40;99.90;;;;;;5006242;28;20042;-71
2021/07/16 04:22:06;;;;;;;10.65;4.18;;;17.50;99.90;;;;;;5023908;28;20034;-70
2021/07/16 04:24:35;;;;;;;12.02;4.45;;;17.60;99.90;;;;;;5015456;28;20061;-69
2021/07/16 04:27:02;;;;;;;14.73;3.92;;;17.60;99.90;;;;;;5006358;28;20030;-70
2021/07/16 04:29:28;;;;;;;8.30;3.95;;;17.60;99.90;;;;;;5015595;28;20037;-67
2021/07/16 04:31:53;;;;;;;19.13;3.78;;;17.70;99.90;;;;;;5025195;28;20050;-67
2021/07/16 04:34:19;;;;;;;10.30;4.10;;;17.70;99.90;;;;;;5024468;28;20036;-69
2021/07/16 04:36:45;;;;;;;27.75;4.28;;;17.70;99.90;;;;;;5025357;28;20029;-69
2021/07/16 04:39:11;;;;;;;15.00;3.30;;;17.70;99.90;;;;;;5025199;28;20026;-70
2021/07/16 04:41:37;;;;;;;15.07;3.00;;;17.80;99.90;;;;;;5008680;28;20027;-69
2021/07/16 04:44:03;;;;;;;18.38;3.63;;;17.80;99.90;;;;;;5005683;28;20034;-68
2021/07/16 04:46:29;;;;;;;12.00;3.35;;;17.70;99.90;;;;;;5005629;28;20026;-68
2021/07/16 04:48:57;;;;;;;16.23;4.32;;;17.70;99.90;;;;;;5005690;28;20035;-69
2021/07/16 04:51:25;;;;;;;13.40;3.38;;;17.70;99.90;;;;;;5008701;28;20485;-70
2021/07/16 04:53:52;;;;;;;11.30;3.10;;;17.80;99.90;;;;;;5019328;28;20026;-71
2021/07/16 04:56:18;;;;;;;14.75;4.05;;;17.80;99.90;;;;;;5005382;28;20034;-72
2021/07/16 04:58:43;;;;;;;9.82;3.97;;;17.80;99.90;;;;;;5020648;28;20054;-70
2021/07/16 05:01:09;;;;;;;9.98;4.22;;;17.80;99.90;;;;;;5010823;28;20030;-70
2021/07/16 05:03:34;;;;;;;12.07;3.17;;;17.80;99.90;;;;;;5017962;28;20086;-72
2021/07/16 05:06:00;;;;;;;11.73;4.97;;;17.80;99.90;;;;;;5011735;28;20045;-72
2021/07/16 05:08:26;;;;;;;8.65;3.30;;;17.80;99.90;;;;;;5016717;28;20033;-73
2021/07/16 05:10:51;;;;;;;12.93;3.65;;;17.80;99.90;;;;;;5004949;28;20026;-71
2021/07/16 05:13:17;;;;;;;18.58;4.35;;;17.80;99.90;;;;;;5005130;28;20082;-71
2021/07/16 05:15:42;;;;;;;15.57;4.28;;;17.80;99.90;;;;;;5004902;28;20042;-71
2021/07/16 05:18:08;;;;;;;19.35;4.35;;;17.80;99.90;;;;;;5004597;28;20026;-71
2021/07/16 05:20:33;;;;;;;17.15;3.58;;;17.80;99.90;;;;;;5004696;28;20066;-73
2021/07/16 05:22:59;;;;;;;20.90;3.92;;;17.90;99.90;;;;;;5014211;28;20038;-74
2021/07/16 05:25:25;;;;;;;15.25;2.95;;;17.80;99.90;;;;;;5013584;28;20018;-74
2021/07/16 05:27:50;;;;;;;9.50;3.42;;;17.90;99.90;;;;;;5018794;28;20069;-72
2021/07/16 05:30:17;;;;;;;8.18;3.35;;;17.90;99.90;;;;;;5022541;28;20022;-74
2021/07/16 05:32:43;;;;;;;8.00;2.35;;;18.00;99.90;;;;;;5023935;28;20053;-73
2021/07/16 05:35:09;;;;;;;9.38;2.88;;;18.00;99.90;;;;;;5023361;28;20041;-72
2021/07/16 05:37:35;;;;;;;24.55;3.70;;;18.10;99.90;;;;;;5024759;28;20566;-73
2021/07/16 05:40:02;;;;;;;32.35;3.85;;;18.10;99.90;;;;;;5024495;28;20026;-73
2021/07/16 05:42:27;;;;;;;14.98;3.55;;;18.20;99.90;;;;;;5024960;28;20076;-74
2021/07/16 05:44:53;;;;;;;18.67;3.47;;;18.10;99.90;;;;;;5024408;28;20026;-71
2021/07/16 05:47:20;;;;;;;10.55;2.90;;;18.20;99.90;;;;;;5023029;28;20427;-73
2021/07/16 05:49:47;;;;;;;15.75;3.60;;;18.20;99.90;;;;;;5023833;28;20026;-76
2021/07/16 05:52:13;;;;;;;8.70;3.05;;;18.20;99.90;;;;;;5023522;28;20108;-74
2021/07/16 05:54:39;;;;;;;15.27;4.72;;;18.20;99.90;;;;;;5039338;28;20065;-77
2021/07/16 05:57:04;;;;;;;10.45;3.00;;;18.20;99.90;;;;;;5022864;28;20384;-74
2021/07/16 05:59:30;;;;;;;9.73;3.55;;;18.10;99.90;;;;;;5023335;28;20036;-75
2021/07/16 06:01:55;;;;;;;18.80;3.75;;;18.20;99.90;;;;;;5024288;28;20527;-74
2021/07/16 06:04:21;;;;;;;11.57;3.25;;;18.10;99.90;;;;;;5024547;28;20076;-69
2021/07/16 06:06:50;;;;;;;7.05;2.95;;;18.20;99.90;;;;;;5023661;28;20026;-74
2021/07/16 06:09:15;;;;;;;10.55;3.85;;;18.20;99.90;;;;;;5023988;28;20034;-76
2021/07/16 06:11:41;;;;;;;16.75;3.35;;;18.20;99.90;;;;;;5024029;28;20022;-76
2021/07/16 06:14:08;;;;;;;14.80;4.75;;;18.30;99.90;;;;;;5027412;28;20060;-72
2021/07/16 06:16:33;;;;;;;15.95;2.80;;;18.30;99.90;;;;;;5028118;28;20034;-74
2021/07/16 06:18:59;;;;;;;36.55;4.35;;;18.30;99.90;;;;;;5028282;28;20034;-73
2021/07/16 06:21:25;;;;;;;17.58;3.72;;;18.40;99.90;;;;;;5026109;28;20034;-75
2021/07/16 06:23:50;;;;;;;16.88;4.22;;;18.40;99.90;;;;;;5020984;28;20034;-73
2021/07/16 06:26:16;;;;;;;7.50;3.03;;;18.50;99.90;;;;;;5012207;28;20037;-71
2021/07/16 06:28:42;;;;;;;12.23;3.65;;;18.50;99.90;;;;;;5027807;28;20034;-71
2021/07/16 06:31:08;;;;;;;7.20;2.72;;;18.50;99.90;;;;;;5018902;28;20496;-73
2021/07/16 06:33:33;;;;;;;14.85;3.60;;;18.60;99.90;;;;;;5007451;28;20113;-75
2021/07/16 06:35:59;;;;;;;8.43;2.97;;;18.60;99.90;;;;;;5006966;28;20511;-74
2021/07/16 06:38:25;;;;;;;12.25;3.88;;;18.60;99.90;;;;;;5006246;28;20042;-73
2021/07/16 06:40:50;;;;;;;13.75;3.33;;;18.70;99.90;;;;;;5021425;28;20060;-73
2021/07/16 06:43:16;;;;;;;12.95;2.65;;;18.80;99.90;;;;;;5007310;28;20035;-71
2021/07/16 06:45:42;;;;;;;24.23;4.63;;;18.80;99.90;;;;;;5008289;28;20031;-75
2021/07/16 06:48:08;;;;;;;12.45;3.25;;;18.80;99.90;;;;;;5006155;28;20026;-74
2021/07/16 06:50:34;;;;;;;21.63;4.10;;;18.90;99.90;;;;;;5006902;28;20029;-74
2021/07/16 06:53:00;;;;;;;12.90;3.55;;;18.90;99.90;;;;;;5007438;28;20057;-75
2021/07/16 06:55:26;;;;;;;12.15;3.05;;;19.00;99.90;;;;;;5007222;28;20054;-70
2021/07/16 06:57:55;;;;;;;11.00;3.30;;;19.20;99.90;;;;;;5007857;28;20034;-79
2021/07/16 07:00:20;;;;;;;18.67;3.90;;;19.40;99.90;;;;;;5007762;28;20027;-70
2021/07/16 07:02:46;;;;;;;7.00;3.08;;;19.60;99.90;;;;;;5005396;28;20033;-75
2021/07/16 07:05:12;;;;;;;24.80;4.25;;;19.70;99.90;;;;;;5005064;28;20455;-71
2021/07/16 07:07:38;;;;;;;15.05;3.85;;;19.80;99.90;;;;;;5006333;28;20033;-74
2021/07/16 07:10:04;;;;;;;21.15;4.40;;;19.80;99.90;;;;;;5006732;28;20042;-74
2021/07/16 07:12:29;;;;;;;19.20;3.80;;;19.80;99.90;;;;;;5006766;28;20500;-73
2021/07/16 07:14:55;;;;;;;11.45;3.55;;;19.80;99.90;;;;;;5005316;28;20074;-77
2021/07/16 07:17:21;;;;;;;17.10;3.83;;;19.80;99.90;;;;;;5006825;28;20022;-77
2021/07/16 07:19:47;;;;;;;17.02;4.35;;;19.80;99.90;;;;;;5006468;28;20022;-75
2021/07/16 07:22:14;;;;;;;15.27;3.10;;;19.80;99.90;;;;;;5008287;28;20100;-71
2021/07/16 07:24:40;;;;;;;16.98;3.70;;;19.80;99.90;;;;;;5022300;28;20029;-70
2021/07/16 07:27:05;;;;;;;6.63;3.40;;;19.80;99.90;;;;;;5028771;28;20026;-72
2021/07/16 07:29:35;;;;;;;10.20;2.85;;;19.90;99.90;;;;;;5013204;28;20022;-76
2021/07/16 07:32:01;;;;;;;15.02;3.25;;;20.00;99.90;;;;;;5025941;28;20040;-74
2021/07/16 07:34:27;;;;;;;6.78;3.60;;;20.10;99.90;;;;;;5024728;28;20038;-69
2021/07/16 07:36:52;;;;;;;8.30;3.15;;;20.20;99.90;;;;;;5019135;28;20610;-74
2021/07/16 07:39:18;;;;;;;9.80;3.17;;;20.30;99.90;;;;;;5005605;28;20033;-75
2021/07/16 07:41:49;;;;;;;13.40;2.63;;;20.30;99.90;;;;;;5006496;28;20033;-71
2021/07/16 07:44:17;;;;;;;12.63;3.95;;;20.30;99.90;;;;;;5006980;28;20086;-75
2021/07/16 07:46:44;;;;;;;21.10;3.60;;;20.30;99.90;;;;;;5008928;28;20027;-74
2021/07/16 07:49:11;;;;;;;15.38;3.35;;;20.20;99.90;;;;;;5015754;28;20023;-72
2021/07/16 07:51:38;;;;;;;13.43;3.55;;;20.10;99.90;;;;;;5017164;28;20030;-75
2021/07/16 07:54:06;;;;;;;12.68;3.63;;;20.10;99.90;;;;;;5017904;28;20030;-75
2021/07/16 07:56:33;;;;;;;11.98;3.13;;;20.10;99.90;;;;;;5014072;28;20088;-74
2021/07/16 07:59:00;;;;;;;12.52;4.05;;;20.10;99.90;;;;;;5016733;28;20045;-77
2021/07/16 08:01:25;;;;;;;24.02;4.53;;;20.10;99.90;;;;;;5007137;28;20040;-71
2021/07/16 08:03:51;;;;;;;10.18;2.95;;;20.10;99.90;;;;;;5020907;28;20120;-77
2021/07/16 08:06:17;;;;;;;17.23;3.22;;;20.10;99.90;;;;;;5024521;28;20033;-76
2021/07/16 08:08:43;;;;;;;9.25;2.95;;;20.10;99.90;;;;;;5008933;28;20034;-75
2021/07/16 08:11:10;;;;;;;7.78;2.95;;;20.10;99.90;;;;;;5006471;28;20031;-75
2021/07/16 08:13:36;;;;;;;12.68;3.35;;;20.10;99.90;;;;;;5004860;28;20061;-74
2021/07/16 08:16:04;;;;;;;13.40;3.97;;;20.20;99.90;;;;;;5006011;28;20042;-75
2021/07/16 08:18:31;;;;;;;18.23;3.55;;;20.20;99.90;;;;;;5012258;28;20089;-75
2021/07/16 08:20:56;;;;;;;11.68;3.67;;;20.20;99.90;;;;;;5022469;28;20519;-73
2021/07/16 08:23:22;;;;;;;14.60;3.53;;;20.20;99.90;;;;;;5016427;28;20095;-76
2021/07/16 08:25:48;;;;;;;15.13;3.42;;;20.20;99.90;;;;;;5005775;28;20026;-76
2021/07/16 08:28:13;;;;;;;13.32;3.58;;;20.30;99.90;;;;;;5006227;28;20053;-75
2021/07/16 08:30:40;;;;;;;10.65;3.08;;;20.30;99.90;;;;;;5004311;28;20057;-76
2021/07/16 08:33:06;;;;;;;14.90;2.85;;;20.40;99.90;;;;;;5006352;28;20030;-75
2021/07/16 08:35:32;;;;;;;10.20;3.25;;;20.50;99.90;;;;;;5005042;28;20559;-75
2021/07/16 08:37:59;;;;;;;13.05;3.38;;;20.60;99.90;;;;;;5005199;28;20034;-78
2021/07/16 08:40:25;;;;;;;30.73;4.10;;;20.60;99.90;;;;;;5005182;28;20018;-76
2021/07/16 08:42:52;;;;;;;12.32;3.42;;;20.70;99.90;;;;;;5005513;28;20041;-74
2021/07/16 08:45:18;;;;;;;7.70;2.90;;;20.90;99.90;;;;;;5005417;28;20022;-75
2021/07/16 08:47:44;;;;;;;10.65;3.58;;;21.00;99.90;;;;;;5005170;28;20026;-74
2021/07/16 08:50:12;;;;;;;13.25;3.30;;;21.20;99.90;;;;;;5005464;28;20536;-71
2021/07/16 08:52:40;;;;;;;14.27;3.55;;;21.30;99.90;;;;;;5005891;28;20026;-75
2021/07/16 08:55:07;;;;;;;8.70;3.42;;;21.30;99.90;;;;;;5007901;28;20381;-75
2021/07/16 08:57:33;;;;;;;11.02;3.35;;;21.40;99.90;;;;;;5005688;28;20119;-75
2021/07/16 08:59:59;;;;;;;17.95;3.08;;;21.40;99.90;;;;;;5012012;28;20033;-74
2021/07/16 09:02:28;;;;;;;5.32;2.08;;;21.40;99.90;;;;;;5024947;28;20030;-75
2021/07/16 09:05:02;;;;;;;13.50;3.30;;;21.50;99.90;;;;;;5026035;28;20022;-71
2021/07/16 09:07:28;;;;;;;11.85;2.97;;;21.80;99.90;;;;;;5022820;28;20388;-73
2021/07/16 09:10:08;;;;;;;5.75;2.70;;;21.90;99.90;;;;;;5023354;28;20022;-75
2021/07/16 09:12:37;;;;;;;11.35;3.25;;;22.00;99.90;;;;;;5024015;28;20454;-75
2021/07/16 09:15:29;;;;;;;15.32;2.90;;;22.10;99.90;;;;;;5022995;28;20077;-76
2021/07/16 09:18:21;;;;;;;15.80;3.38;;;22.10;99.90;;;;;;5022942;28;20049;-74
2021/07/16 09:20:48;;;;;;;14.70;3.08;;;22.00;99.90;;;;;;5022787;28;20028;-76
2021/07/16 09:23:17;;;;;;;12.88;3.28;;;21.90;99.90;;;;;;5023400;28;20793;-73
2021/07/16 09:25:59;;;;;;;13.32;2.90;;;21.90;99.90;;;;;;5023611;28;20053;-73
2021/07/16 09:28:25;;;;;;;11.85;2.75;;;21.90;99.90;;;;;;5023850;28;20030;-73
2021/07/16 09:30:53;;;;;;;11.77;3.28;;;21.90;99.90;;;;;;5023902;28;20590;-74
2021/07/16 09:33:19;;;;;;;9.25;3.15;;;22.00;99.90;;;;;;5023977;28;20030;-73
2021/07/16 09:35:45;;;;;;;9.80;4.05;;;22.00;99.90;;;;;;5022296;28;20042;-75
2021/07/16 09:38:13;;;;;;;7.75;3.28;;;22.10;99.90;;;;;;5011620;28;20113;-72
2021/07/16 09:40:47;;;;;;;15.73;2.58;;;22.20;99.90;;;;;;5003446;28;20031;-74
2021/07/16 09:43:21;;;;;;;10.18;3.25;;;22.30;99.90;;;;;;5004436;28;20065;-74
2021/07/16 09:46:07;;;;;;;15.32;3.85;;;22.50;99.90;;;;;;5004484;28;20034;-73
2021/07/16 09:48:36;;;;;;;11.35;3.42;;;22.50;99.90;;;;;;5022203;28;20366;-72
2021/07/16 09:51:12;;;;;;;8.05;3.17;;;22.60;99.90;;;;;;5028729;28;20038;-77
2021/07/16 09:53:51;;;;;;;7.00;2.80;;;22.60;99.90;;;;;;5027281;28;20030;-71
2021/07/16 09:56:53;;;;;;;19.77;3.47;;;22.70;99.90;;;;;;5027019;28;20072;-74
2021/07/16 09:59:28;;;;;;;5.35;2.95;;;22.60;99.90;;;;;;5024147;28;20018;-73
2021/07/16 10:01:54;;;;;;;9.57;2.83;;;22.60;99.90;;;;;;5027293;28;20073;-71
2021/07/16 10:04:21;;;;;;;16.08;3.03;;;22.60;99.90;;;;;;5026714;28;20026;-71
2021/07/16 10:06:48;;;;;;;12.13;3.47;;;22.70;99.90;;;;;;5020377;28;20125;-72
2021/07/16 10:09:15;;;;;;;18.95;2.90;;;22.90;99.90;;;;;;5008376;28;20092;-72
2021/07/16 10:11:41;;;;;;;14.25;2.95;;;22.90;99.90;;;;;;5008618;28;20495;-74
2021/07/16 10:14:09;;;;;;;14.48;3.58;;;22.90;99.90;;;;;;5008496;28;20042;-74
2021/07/16 10:16:39;;;;;;;9.02;2.83;;;23.00;99.90;;;;;;5008033;28;20031;-73
2021/07/16 10:19:05;;;;;;;15.15;4.30;;;23.10;99.90;;;;;;5008706;28;20019;-72
2021/07/16 10:21:31;;;;;;;17.98;2.83;;;23.10;99.90;;;;;;5008602;28;20404;-73
2021/07/16 10:23:58;;;;;;;8.95;3.58;;;23.20;99.90;;;;;;5015119;28;20030;-73
2021/07/16 10:26:24;;;;;;;12.93;3.95;;;23.30;99.90;;;;;;5028114;28;20053;-72
2021/07/16 10:28:50;;;;;;;7.68;3.50;;;23.40;99.90;;;;;;5028131;28;20057;-74
2021/07/16 10:31:28;;;;;;;19.85;2.60;;;23.30;99.90;;;;;;5028437;28;20477;-75
2021/07/16 10:34:06;;;;;;;16.60;3.13;;;23.20;99.90;;;;;;5027895;28;20022;-71
2021/07/16 10:36:39;;;;;;;19.48;3.83;;;23.30;99.90;;;;;;5028111;28;20042;-73
2021/07/16 10:39:08;;;;;;;13.57;2.80;;;23.40;99.90;;;;;;5027767;28;20032;-74
2021/07/16 10:41:37;;;;;;;22.17;3.92;;;23.50;99.90;;;;;;5027963;28;20412;-74
2021/07/16 10:44:03;;;;;;;7.30;2.95;;;23.60;99.90;;;;;;5027842;28;20033;-73
2021/07/16 10:46:32;;;;;;;10.80;3.42;;;23.80;99.90;;;;;;5027626;28;20024;-73
2021/07/16 10:48:59;;;;;;;11.18;3.45;;;24.00;99.90;;;;;;5027627;28;20026;-74
2021/07/16 10:51:27;;;;;;;18.08;4.15;;;24.10;99.90;;;;;;5027156;28;20029;-72
2021/07/16 10:53:54;;;;;;;10.40;3.58;;;24.10;99.90;;;;;;5027470;28;20034;-75
2021/07/16 10:56:34;;;;;;;10.18;3.25;;;24.10;99.90;;;;;;5027197;28;20038;-76
2021/07/16 10:59:00;;;;;;;7.03;2.80;;;24.10;99.90;;;;;;5026825;28;20029;-73
2021/07/16 11:01:33;;;;;;;11.63;3.20;;;24.20;99.90;;;;;;5027005;28;20030;-74
2021/07/16 11:04:01;;;;;;;11.10;2.83;;;24.30;99.90;;;;;;5027868;28;21021;-72
2021/07/16 11:06:47;;;;;;;10.35;3.67;;;24.30;99.90;;;;;;5027234;28;20161;-72
2021/07/16 11:09:39;;;;;;;13.73;3.60;;;24.40;99.90;;;;;;5027131;28;20041;-73
2021/07/16 11:12:32;;;;;;;6.13;2.80;;;24.50;99.90;;;;;;5025771;28;20447;-74
2021/07/16 11:14:58;;;;;;;10.30;3.58;;;24.40;99.90;;;;;;5026514;28;20081;-71
2021/07/16 11:17:32;;;;;;;11.85;2.97;;;24.40;99.90;;;;;;5027219;28;20098;-70
2021/07/16 11:20:15;;;;;;;6.97;2.50;;;24.50;99.90;;;;;;5027429;28;20085;-70
2021/07/16 11:23:01;;;;;;;15.75;3.30;;;24.50;99.90;;;;;;5026932;28;20041;-73
2021/07/16 11:25:27;;;;;;;6.43;2.65;;;24.40;99.90;;;;;;5026845;28;20089;-73
2021/07/16 11:27:53;;;;;;;18.38;3.60;;;24.20;99.90;;;;;;5026878;28;20109;-70
2021/07/16 11:30:19;;;;;;;15.60;4.10;;;24.10;99.90;;;;;;5026830;28;20048;-69
2021/07/16 11:32:45;;;;;;;8.85;2.78;;;23.90;99.90;;;;;;5026928;28;20109;-69
2021/07/16 11:35:12;;;;;;;6.20;2.83;;;23.90;99.90;;;;;;5026559;28;20100;-70
2021/07/16 11:37:44;;;;;;;16.08;3.47;;;24.10;99.90;;;;;;5026744;28;20025;-72
2021/07/16 11:40:30;;;;;;;11.90;3.08;;;24.10;99.90;;;;;;5026400;28;20033;-72
2021/07/16 11:42:58;;;;;;;13.65;2.97;;;24.20;99.90;;;;;;5026489;28;20038;-70
2021/07/16 11:45:32;;;;;;;7.68;2.83;;;24.30;99.90;;;;;;5025304;28;20026;-73
2021/07/16 11:47:59;;;;;;;14.52;3.30;;;24.20;99.90;;;;;;5026652;28;20048;-69
2021/07/16 11:50:31;;;;;;;17.67;3.45;;;24.20;99.90;;;;;;5026062;28;20137;-70
2021/07/16 11:52:57;;;;;;;14.10;3.35;;;24.40;99.90;;;;;;5026469;28;20045;-71
2021/07/16 11:55:26;;;;;;;16.98;3.67;;;24.70;99.90;;;;;;5026293;28;20050;-71
2021/07/16 11:57:59;;;;;;;14.15;3.53;;;24.90;99.90;;;;;;5026494;28;20034;-72
2021/07/16 12:00:29;;;;;;;5.65;2.80;;;24.90;99.90;;;;;;5025672;28;20096;-70
2021/07/16 12:03:13;;;;;;;9.13;3.80;;;24.90;99.90;;;;;;5025935;28;20428;-72
2021/07/16 12:05:54;;;;;;;7.43;3.30;;;25.20;99.90;;;;;;5026268;28;20026;-69
2021/07/16 12:08:31;;;;;;;8.15;3.08;;;25.40;99.90;;;;;;5026205;28;20034;-73
2021/07/16 12:11:07;;;;;;;9.20;2.75;;;25.50;99.90;;;;;;5025485;28;20026;-71
2021/07/16 12:13:34;;;;;;;7.25;3.15;;;25.60;99.90;;;;;;5026036;28;20061;-73
2021/07/16 12:16:04;;;;;;;11.98;3.60;;;25.80;99.90;;;;;;5025847;28;20056;-68
2021/07/16 12:18:32;;;;;;;7.32;2.25;;;26.10;99.90;;;;;;5026147;28;20045;-71
2021/07/16 12:21:06;;;;;;;4.65;2.63;;;26.20;99.90;;;;;;5025938;28;20369;-70
2021/07/16 12:23:33;;;;;;;10.35;3.47;;;26.20;99.90;;;;;;5026133;28;20057;-73
2021/07/16 12:26:24;;;;;;;10.20;2.53;;;26.30;99.90;;;;;;5025930;28;20037;-71
2021/07/16 12:29:04;;;;;;;10.20;3.10;;;26.50;99.90;;;;;;5025186;28;20034;-78
2021/07/16 12:31:31;;;;;;;4.10;2.05;;;26.60;99.90;;;;;;5026163;28;20030;-71
2021/07/16 12:33:58;;;;;;;7.68;2.65;;;26.70;99.90;;;;;;5024873;28;20068;-69
2021/07/16 12:36:26;;;;;;;5.85;2.53;;;26.90;99.90;;;;;;5025485;28;20061;-70
2021/07/16 12:38:56;;;;;;;8.60;3.08;;;27.10;99.90;;;;;;5025307;28;20022;-73
2021/07/16 12:41:23;;;;;;;6.45;2.70;;;27.20;99.90;;;;;;5040672;28;20474;-72
2021/07/16 12:43:48;;;;;;;9.15;2.42;;;27.30;99.90;;;;;;5025854;28;20040;-72
2021/07/16 12:46:26;;;;;;;9.88;2.05;;;27.40;99.90;;;;;;5025421;28;20472;-72